sensor_id;sensor_type;location;lat;lon;timestamp;pressure;altitude;pressure_sealevel;temperature;humidity
33191;BME280;19554;42.652;23.364;2023-01-25T00:02:02;95722.19;;;1.99;79.56
33191;BME280;19554;42.652;23.364;2023-01-25T00:04:27;95727.03;;;2.09;79.50
33191;BME280;19554;42.652;23.364;2023-01-25T00:06:53;95704.97;;;2.03;79.29
33191;BME280;19554;42.652;23.364;2023-01-25T00:09:20;95724.94;;;2.31;79.41
33191;BME280;19554;42.652;23.364;2023-01-25T00:11:46;95730.16;;;2.44;78.95
33191;BME280;19554;42.652;23.364;2023-01-25T00:14:13;95720.03;;;2.41;78.46
33191;BME280;19554;42.652;23.364;2023-01-25T00:16:38;95708.28;;;2.37;78.37
33191;BME280;19554;42.652;23.364;2023-01-25T00:19:05;95718.28;;;2.67;77.97
33191;BME280;19554;42.652;23.364;2023-01-25T00:21:31;95718.22;;;2.80;77.24
33191;BME280;19554;42.652;23.364;2023-01-25T00:23:56;95667.69;;;2.51;76.61
33191;BME280;19554;42.652;23.364;2023-01-25T00:26:22;95720.22;;;2.91;76.97
33191;BME280;19554;42.652;23.364;2023-01-25T00:28:51;95714.06;;;2.97;76.41
33191;BME280;19554;42.652;23.364;2023-01-25T00:31:26;95721.47;;;2.82;76.72
33191;BME280;19554;42.652;23.364;2023-01-25T00:34:46;95706.38;;;2.57;76.37
33191;BME280;19554;42.652;23.364;2023-01-25T00:36:49;95720.16;;;2.59;77.08
33191;BME280;19554;42.652;23.364;2023-01-25T00:39:15;95723.84;;;2.52;77.95
33191;BME280;19554;42.652;23.364;2023-01-25T00:41:41;95717.97;;;2.56;77.39
33191;BME280;19554;42.652;23.364;2023-01-25T00:44:07;95686.63;;;2.35;76.95
33191;BME280;19554;42.652;23.364;2023-01-25T00:46:32;95722.72;;;2.73;76.63
33191;BME280;19554;42.652;23.364;2023-01-25T00:48:58;95723.13;;;2.70;75.75
33191;BME280;19554;42.652;23.364;2023-01-25T00:51:23;95716.50;;;2.16;76.29
33191;BME280;19554;42.652;23.364;2023-01-25T00:53:49;95728.69;;;1.90;77.75
33191;BME280;19554;42.652;23.364;2023-01-25T00:56:15;95731.13;;;1.78;78.45
33191;BME280;19554;42.652;23.364;2023-01-25T00:58:40;95722.22;;;1.86;78.66
33191;BME280;19554;42.652;23.364;2023-01-25T01:01:06;95732.31;;;1.96;79.05
33191;BME280;19554;42.652;23.364;2023-01-25T01:03:31;95726.63;;;2.05;78.90
33191;BME280;19554;42.652;23.364;2023-01-25T01:06:08;95731.84;;;2.19;78.78
33191;BME280;19554;42.652;23.364;2023-01-25T01:08:37;95728.22;;;2.13;78.53
33191;BME280;19554;42.652;23.364;2023-01-25T01:11:07;95719.94;;;2.09;78.73
33191;BME280;19554;42.652;23.364;2023-01-25T01:13:33;95709.22;;;1.91;78.39
33191;BME280;19554;42.652;23.364;2023-01-25T01:16:03;95728.25;;;2.06;78.34
33191;BME280;19554;42.652;23.364;2023-01-25T01:18:33;95728.84;;;2.08;77.98
33191;BME280;19554;42.652;23.364;2023-01-25T01:20:59;95727.84;;;2.09;78.11
33191;BME280;19554;42.652;23.364;2023-01-25T01:23:24;95643.69;;;1.70;77.79
33191;BME280;19554;42.652;23.364;2023-01-25T01:25:50;95722.53;;;2.23;77.47
33191;BME280;19554;42.652;23.364;2023-01-25T01:28:16;95707.56;;;2.17;77.39
33191;BME280;19554;42.652;23.364;2023-01-25T01:30:41;95714.78;;;2.34;76.59
33191;BME280;19554;42.652;23.364;2023-01-25T01:33:07;95659.06;;;1.79;76.50
33191;BME280;19554;42.652;23.364;2023-01-25T01:35:32;95685.28;;;2.12;76.82
33191;BME280;19554;42.652;23.364;2023-01-25T01:37:58;95703.50;;;2.21;76.32
33191;BME280;19554;42.652;23.364;2023-01-25T01:40:23;95702.22;;;2.36;76.37
33191;BME280;19554;42.652;23.364;2023-01-25T01:48:42;95670.69;;;2.17;75.54
33191;BME280;19554;42.652;23.364;2023-01-25T01:53:37;95639.78;;;1.92;76.71
33191;BME280;19554;42.652;23.364;2023-01-25T01:56:06;95697.16;;;2.35;76.64
33191;BME280;19554;42.652;23.364;2023-01-25T01:58:35;95701.78;;;2.46;76.69
33191;BME280;19554;42.652;23.364;2023-01-25T02:01:01;95694.09;;;2.38;76.86
33191;BME280;19554;42.652;23.364;2023-01-25T02:03:27;95657.72;;;2.15;76.86
33191;BME280;19554;42.652;23.364;2023-01-25T02:08:32;95700.75;;;2.47;76.08
33191;BME280;19554;42.652;23.364;2023-01-25T02:11:02;95623.50;;;2.08;75.74
33191;BME280;19554;42.652;23.364;2023-01-25T02:13:28;95663.38;;;2.19;75.04
33191;BME280;19554;42.652;23.364;2023-01-25T02:15:55;95703.38;;;2.47;74.96
33191;BME280;19554;42.652;23.364;2023-01-25T02:18:20;95700.16;;;2.45;75.30
33191;BME280;19554;42.652;23.364;2023-01-25T02:20:50;95701.34;;;2.49;75.19
33191;BME280;19554;42.652;23.364;2023-01-25T02:23:35;95684.34;;;2.45;74.91
33191;BME280;19554;42.652;23.364;2023-01-25T02:26:04;95691.16;;;2.59;75.19
33191;BME280;19554;42.652;23.364;2023-01-25T02:28:37;95697.19;;;2.67;74.36
33191;BME280;19554;42.652;23.364;2023-01-25T02:31:04;95591.78;;;1.90;73.84
33191;BME280;19554;42.652;23.364;2023-01-25T02:33:30;95699.16;;;2.46;74.31
33191;BME280;19554;42.652;23.364;2023-01-25T02:38:34;95697.38;;;2.33;75.53
33191;BME280;19554;42.652;23.364;2023-01-25T02:41:07;95700.75;;;2.47;75.37
33191;BME280;19554;42.652;23.364;2023-01-25T02:43:34;95615.69;;;1.95;75.02
33191;BME280;19554;42.652;23.364;2023-01-25T02:46:11;95664.53;;;2.36;75.08
33191;BME280;19554;42.652;23.364;2023-01-25T02:48:38;95688.50;;;2.21;74.92
33191;BME280;19554;42.652;23.364;2023-01-25T02:51:06;95582.63;;;1.54;75.81
33191;BME280;19554;42.652;23.364;2023-01-25T02:53:32;95562.81;;;1.45;76.04
33191;BME280;19554;42.652;23.364;2023-01-25T02:55:57;95691.72;;;2.30;76.33
33191;BME280;19554;42.652;23.364;2023-01-25T02:58:23;95684.81;;;2.29;75.99
33191;BME280;19554;42.652;23.364;2023-01-25T03:00:49;95669.63;;;2.24;75.79
33191;BME280;19554;42.652;23.364;2023-01-25T03:03:14;95690.06;;;2.29;75.68
33191;BME280;19554;42.652;23.364;2023-01-25T03:05:39;95697.75;;;2.37;76.04
33191;BME280;19554;42.652;23.364;2023-01-25T03:08:05;95698.53;;;2.44;75.92
33191;BME280;19554;42.652;23.364;2023-01-25T03:10:30;95696.69;;;2.51;75.66
33191;BME280;19554;42.652;23.364;2023-01-25T03:12:55;95627.72;;;2.23;74.96
33191;BME280;19554;42.652;23.364;2023-01-25T03:15:21;95695.16;;;2.69;74.67
33191;BME280;19554;42.652;23.364;2023-01-25T03:17:46;95666.22;;;2.62;74.20
33191;BME280;19554;42.652;23.364;2023-01-25T03:20:12;95682.19;;;2.74;74.38
33191;BME280;19554;42.652;23.364;2023-01-25T03:22:37;95687.56;;;2.85;74.06
33191;BME280;19554;42.652;23.364;2023-01-25T03:25:03;95670.56;;;2.50;74.35
33191;BME280;19554;42.652;23.364;2023-01-25T03:27:29;95688.72;;;2.65;74.31
33191;BME280;19554;42.652;23.364;2023-01-25T03:29:54;95634.63;;;2.17;74.46
33191;BME280;19554;42.652;23.364;2023-01-25T03:32:20;95694.34;;;2.30;74.97
33191;BME280;19554;42.652;23.364;2023-01-25T03:34:45;95581.78;;;1.54;75.39
33191;BME280;19554;42.652;23.364;2023-01-25T03:37:11;95692.13;;;2.27;75.58
33191;BME280;19554;42.652;23.364;2023-01-25T03:39:36;95683.63;;;2.25;75.42
33191;BME280;19554;42.652;23.364;2023-01-25T03:42:02;95604.41;;;1.81;75.18
33191;BME280;19554;42.652;23.364;2023-01-25T03:44:27;95684.72;;;2.49;75.25
33191;BME280;19554;42.652;23.364;2023-01-25T03:46:53;95598.63;;;2.04;74.94
33191;BME280;19554;42.652;23.364;2023-01-25T03:49:18;95688.47;;;2.66;74.49
33191;BME280;19554;42.652;23.364;2023-01-25T03:51:43;95670.84;;;2.67;74.26
33191;BME280;19554;42.652;23.364;2023-01-25T03:54:09;95625.25;;;2.28;73.86
33191;BME280;19554;42.652;23.364;2023-01-25T03:56:35;95675.72;;;2.63;74.36
33191;BME280;19554;42.652;23.364;2023-01-25T03:59:01;95680.63;;;2.59;74.80
33191;BME280;19554;42.652;23.364;2023-01-25T04:01:27;95558.97;;;1.99;74.31
33191;BME280;19554;42.652;23.364;2023-01-25T04:03:52;95521.38;;;1.79;73.82
33191;BME280;19554;42.652;23.364;2023-01-25T04:06:17;95672.81;;;2.78;73.75
33191;BME280;19554;42.652;23.364;2023-01-25T04:08:43;95674.66;;;2.77;73.59
33191;BME280;19554;42.652;23.364;2023-01-25T04:11:09;95674.84;;;2.76;73.79
33191;BME280;19554;42.652;23.364;2023-01-25T04:13:36;95667.22;;;2.68;73.77
33191;BME280;19554;42.652;23.364;2023-01-25T04:16:06;95673.59;;;2.85;73.63
33191;BME280;19554;42.652;23.364;2023-01-25T04:18:32;95672.47;;;2.68;73.31
33191;BME280;19554;42.652;23.364;2023-01-25T04:20:58;95682.78;;;2.31;74.59
33191;BME280;19554;42.652;23.364;2023-01-25T04:23:24;95665.38;;;2.30;74.29
33191;BME280;19554;42.652;23.364;2023-01-25T04:25:57;95666.56;;;2.34;74.14
33191;BME280;19554;42.652;23.364;2023-01-25T04:28:23;95668.16;;;2.35;73.98
33191;BME280;19554;42.652;23.364;2023-01-25T04:30:48;95604.13;;;1.96;73.79
33191;BME280;19554;42.652;23.364;2023-01-25T04:33:14;95653.59;;;2.32;73.34
33191;BME280;19554;42.652;23.364;2023-01-25T04:35:40;95687.38;;;2.42;72.70
33191;BME280;19554;42.652;23.364;2023-01-25T04:38:05;95681.19;;;2.30;72.91
33191;BME280;19554;42.652;23.364;2023-01-25T04:40:31;95684.88;;;2.16;73.15
33191;BME280;19554;42.652;23.364;2023-01-25T04:42:57;95676.00;;;1.97;73.62
33191;BME280;19554;42.652;23.364;2023-01-25T04:45:23;95669.53;;;1.99;73.54
33191;BME280;19554;42.652;23.364;2023-01-25T04:47:55;95687.16;;;2.05;73.29
33191;BME280;19554;42.652;23.364;2023-01-25T04:50:21;95691.16;;;2.08;73.77
33191;BME280;19554;42.652;23.364;2023-01-25T04:52:46;95567.47;;;1.36;72.82
33191;BME280;19554;42.652;23.364;2023-01-25T04:55:11;95686.94;;;2.00;73.13
33191;BME280;19554;42.652;23.364;2023-01-25T04:57:37;95682.47;;;2.07;73.15
33191;BME280;19554;42.652;23.364;2023-01-25T05:00:03;95685.34;;;1.93;72.71
33191;BME280;19554;42.652;23.364;2023-01-25T05:02:28;95690.63;;;1.86;72.97
33191;BME280;19554;42.652;23.364;2023-01-25T05:04:53;95686.53;;;2.03;72.98
33191;BME280;19554;42.652;23.364;2023-01-25T05:07:19;95681.44;;;2.08;73.20
33191;BME280;19554;42.652;23.364;2023-01-25T05:09:44;95688.09;;;2.18;73.18
33191;BME280;19554;42.652;23.364;2023-01-25T05:12:11;95676.38;;;2.13;72.64
33191;BME280;19554;42.652;23.364;2023-01-25T05:14:40;95681.28;;;1.90;72.90
33191;BME280;19554;42.652;23.364;2023-01-25T05:17:06;95678.44;;;1.98;73.32
33191;BME280;19554;42.652;23.364;2023-01-25T05:19:32;95658.38;;;1.97;73.03
33191;BME280;19554;42.652;23.364;2023-01-25T05:21:58;95664.63;;;2.09;72.44
33191;BME280;19554;42.652;23.364;2023-01-25T05:24:26;95654.09;;;2.09;72.43
33191;BME280;19554;42.652;23.364;2023-01-25T05:26:52;95677.97;;;2.14;72.00
33191;BME280;19554;42.652;23.364;2023-01-25T05:32:03;95667.59;;;1.61;72.66
33191;BME280;19554;42.652;23.364;2023-01-25T05:34:30;95680.94;;;1.66;73.49
33191;BME280;19554;42.652;23.364;2023-01-25T05:36:55;95680.94;;;1.73;73.32
33191;BME280;19554;42.652;23.364;2023-01-25T05:39:21;95683.00;;;1.58;73.68
33191;BME280;19554;42.652;23.364;2023-01-25T05:41:47;95685.00;;;1.49;73.66
33191;BME280;19554;42.652;23.364;2023-01-25T05:44:13;95596.06;;;1.06;73.71
33191;BME280;19554;42.652;23.364;2023-01-25T05:46:38;95683.13;;;1.83;73.81
33191;BME280;19554;42.652;23.364;2023-01-25T05:49:04;95682.88;;;1.98;73.33
33191;BME280;19554;42.652;23.364;2023-01-25T05:51:29;95676.44;;;1.87;72.93
33191;BME280;19554;42.652;23.364;2023-01-25T05:53:55;95647.34;;;1.69;72.95
33191;BME280;19554;42.652;23.364;2023-01-25T05:56:21;95691.41;;;2.00;73.17
33191;BME280;19554;42.652;23.364;2023-01-25T05:58:46;95673.38;;;1.97;73.65
33191;BME280;19554;42.652;23.364;2023-01-25T06:01:16;95682.50;;;1.94;73.60
33191;BME280;19554;42.652;23.364;2023-01-25T06:03:41;95681.66;;;2.00;73.56
33191;BME280;19554;42.652;23.364;2023-01-25T06:06:07;95679.28;;;1.85;73.83
33191;BME280;19554;42.652;23.364;2023-01-25T06:08:32;95665.09;;;1.93;73.91
33191;BME280;19554;42.652;23.364;2023-01-25T06:10:57;95685.34;;;1.99;73.75
33191;BME280;19554;42.652;23.364;2023-01-25T06:13:23;95692.59;;;2.10;74.31
33191;BME280;19554;42.652;23.364;2023-01-25T06:15:53;95691.63;;;1.92;73.62
33191;BME280;19554;42.652;23.364;2023-01-25T06:18:18;95701.78;;;1.75;73.83
33191;BME280;19554;42.652;23.364;2023-01-25T06:20:44;95699.19;;;1.61;74.88
33191;BME280;19554;42.652;23.364;2023-01-25T06:23:09;95699.56;;;1.65;75.17
33191;BME280;19554;42.652;23.364;2023-01-25T06:25:34;95704.84;;;1.72;75.30
33191;BME280;19554;42.652;23.364;2023-01-25T06:28:00;95698.69;;;1.91;75.33
33191;BME280;19554;42.652;23.364;2023-01-25T06:30:25;95705.00;;;1.90;73.77
33191;BME280;19554;42.652;23.364;2023-01-25T06:32:50;95702.19;;;1.85;73.67
33191;BME280;19554;42.652;23.364;2023-01-25T06:35:16;95704.78;;;1.92;73.41
33191;BME280;19554;42.652;23.364;2023-01-25T06:37:41;95697.28;;;2.02;73.53
33191;BME280;19554;42.652;23.364;2023-01-25T06:40:07;95691.59;;;1.98;73.09
33191;BME280;19554;42.652;23.364;2023-01-25T06:42:33;95699.47;;;2.11;72.50
33191;BME280;19554;42.652;23.364;2023-01-25T06:44:58;95623.47;;;1.50;72.64
33191;BME280;19554;42.652;23.364;2023-01-25T06:47:23;95701.59;;;1.70;74.00
33191;BME280;19554;42.652;23.364;2023-01-25T06:49:49;95703.22;;;1.57;74.52
33191;BME280;19554;42.652;23.364;2023-01-25T06:52:14;95701.59;;;1.30;75.75
33191;BME280;19554;42.652;23.364;2023-01-25T06:54:40;95667.22;;;1.11;76.20
33191;BME280;19554;42.652;23.364;2023-01-25T06:57:05;95678.16;;;1.22;75.96
33191;BME280;19554;42.652;23.364;2023-01-25T06:59:30;95697.34;;;1.42;76.20
33191;BME280;19554;42.652;23.364;2023-01-25T07:01:56;95669.22;;;1.36;76.08
33191;BME280;19554;42.652;23.364;2023-01-25T07:04:21;95697.94;;;1.71;76.08
33191;BME280;19554;42.652;23.364;2023-01-25T07:06:46;95700.38;;;1.72;75.67
33191;BME280;19554;42.652;23.364;2023-01-25T07:09:13;95702.75;;;1.87;75.59
33191;BME280;19554;42.652;23.364;2023-01-25T07:11:39;95658.25;;;1.79;75.30
33191;BME280;19554;42.652;23.364;2023-01-25T07:14:04;95697.84;;;2.10;75.27
33191;BME280;19554;42.652;23.364;2023-01-25T07:16:30;95608.50;;;1.57;73.96
33191;BME280;19554;42.652;23.364;2023-01-25T07:19:01;95695.19;;;2.17;73.61
33191;BME280;19554;42.652;23.364;2023-01-25T07:21:27;95608.28;;;1.59;73.62
33191;BME280;19554;42.652;23.364;2023-01-25T07:23:52;95697.72;;;1.92;74.28
33191;BME280;19554;42.652;23.364;2023-01-25T07:26:24;95701.16;;;1.79;74.82
33191;BME280;19554;42.652;23.364;2023-01-25T07:28:50;95571.38;;;0.87;75.33
33191;BME280;19554;42.652;23.364;2023-01-25T07:31:17;95710.50;;;1.55;75.66
33191;BME280;19554;42.652;23.364;2023-01-25T07:33:43;95707.66;;;1.50;76.67
33191;BME280;19554;42.652;23.364;2023-01-25T07:36:09;95703.22;;;1.57;76.78
33191;BME280;19554;42.652;23.364;2023-01-25T07:38:36;95706.03;;;1.69;76.23
33191;BME280;19554;42.652;23.364;2023-01-25T07:41:02;95707.22;;;1.80;75.73
33191;BME280;19554;42.652;23.364;2023-01-25T07:43:28;95640.53;;;1.28;75.86
33191;BME280;19554;42.652;23.364;2023-01-25T07:46:00;95714.75;;;1.70;75.78
33191;BME280;19554;42.652;23.364;2023-01-25T07:48:25;95713.69;;;1.84;76.08
33191;BME280;19554;42.652;23.364;2023-01-25T07:50:50;95713.69;;;1.97;76.04
33191;BME280;19554;42.652;23.364;2023-01-25T07:53:36;95708.84;;;1.81;76.33
33191;BME280;19554;42.652;23.364;2023-01-25T07:56:01;95719.19;;;1.82;76.18
33191;BME280;19554;42.652;23.364;2023-01-25T07:58:27;95715.94;;;1.67;76.53
33191;BME280;19554;42.652;23.364;2023-01-25T08:00:52;95721.03;;;1.42;77.78
33191;BME280;19554;42.652;23.364;2023-01-25T08:03:18;95704.03;;;1.38;78.05
33191;BME280;19554;42.652;23.364;2023-01-25T08:05:46;95704.03;;;1.45;77.78
33191;BME280;19554;42.652;23.364;2023-01-25T08:08:11;95705.66;;;1.19;78.58
33191;BME280;19554;42.652;23.364;2023-01-25T08:10:37;95703.22;;;1.11;79.31
33191;BME280;19554;42.652;23.364;2023-01-25T08:13:03;95702.03;;;1.13;79.89
33191;BME280;19554;42.652;23.364;2023-01-25T08:15:28;95717.41;;;1.16;79.95
33191;BME280;19554;42.652;23.364;2023-01-25T08:17:53;95709.47;;;0.90;80.89
33191;BME280;19554;42.652;23.364;2023-01-25T08:20:19;95709.66;;;0.88;81.49
33191;BME280;19554;42.652;23.364;2023-01-25T08:22:46;95658.31;;;0.73;81.91
33191;BME280;19554;42.652;23.364;2023-01-25T08:25:11;95618.63;;;0.41;81.75
33191;BME280;19554;42.652;23.364;2023-01-25T08:27:37;95698.97;;;1.03;81.79
33191;BME280;19554;42.652;23.364;2023-01-25T08:30:02;95688.25;;;0.98;81.70
33191;BME280;19554;42.652;23.364;2023-01-25T08:32:28;95701.63;;;1.23;81.73
33191;BME280;19554;42.652;23.364;2023-01-25T08:34:53;95708.91;;;1.41;81.31
33191;BME280;19554;42.652;23.364;2023-01-25T08:37:18;95650.63;;;1.04;80.97
33191;BME280;19554;42.652;23.364;2023-01-25T08:39:44;95704.63;;;1.53;80.29
33191;BME280;19554;42.652;23.364;2023-01-25T08:42:09;95704.44;;;1.61;80.19
33191;BME280;19554;42.652;23.364;2023-01-25T08:44:34;95692.66;;;1.71;79.80
33191;BME280;19554;42.652;23.364;2023-01-25T08:47:00;95689.44;;;1.69;79.48
33191;BME280;19554;42.652;23.364;2023-01-25T08:49:25;95691.47;;;1.66;79.78
33191;BME280;19554;42.652;23.364;2023-01-25T08:51:51;95690.88;;;1.71;79.55
33191;BME280;19554;42.652;23.364;2023-01-25T08:54:17;95695.91;;;1.79;79.63
33191;BME280;19554;42.652;23.364;2023-01-25T08:56:42;95611.78;;;1.19;79.76
33191;BME280;19554;42.652;23.364;2023-01-25T08:59:12;95690.22;;;1.89;79.64
33191;BME280;19554;42.652;23.364;2023-01-25T09:01:37;95698.31;;;1.87;79.85
33191;BME280;19554;42.652;23.364;2023-01-25T09:04:03;95699.94;;;1.88;79.52
33191;BME280;19554;42.652;23.364;2023-01-25T09:06:28;95671.63;;;1.64;79.78
33191;BME280;19554;42.652;23.364;2023-01-25T09:08:54;95658.28;;;1.65;79.76
33191;BME280;19554;42.652;23.364;2023-01-25T09:11:21;95684.97;;;1.76;79.96
33191;BME280;19554;42.652;23.364;2023-01-25T09:13:47;95656.28;;;1.41;80.31
33191;BME280;19554;42.652;23.364;2023-01-25T09:16:18;95678.91;;;1.75;80.72
33191;BME280;19554;42.652;23.364;2023-01-25T09:18:45;95622.69;;;1.43;80.23
33191;BME280;19554;42.652;23.364;2023-01-25T09:21:14;95667.56;;;1.75;80.26
33191;BME280;19554;42.652;23.364;2023-01-25T09:23:40;95672.75;;;2.01;80.17
33191;BME280;19554;42.652;23.364;2023-01-25T09:26:09;95682.63;;;2.19;80.11
33191;BME280;19554;42.652;23.364;2023-01-25T09:28:35;95596.69;;;1.80;79.15
33191;BME280;19554;42.652;23.364;2023-01-25T09:31:04;95670.28;;;2.20;78.98
33191;BME280;19554;42.652;23.364;2023-01-25T09:33:32;95670.69;;;2.17;79.44
33191;BME280;19554;42.652;23.364;2023-01-25T09:35:58;95659.94;;;2.18;79.61
33191;BME280;19554;42.652;23.364;2023-01-25T09:38:24;95647.94;;;2.29;79.38
33191;BME280;19554;42.652;23.364;2023-01-25T09:54:46;95588.50;;;2.01;78.23
33191;BME280;19554;42.652;23.364;2023-01-25T09:57:16;95627.34;;;2.12;78.33
33191;BME280;19554;42.652;23.364;2023-01-25T09:59:43;95569.66;;;1.53;79.37
33191;BME280;19554;42.652;23.364;2023-01-25T10:04:44;95617.94;;;1.85;79.12
33191;BME280;19554;42.652;23.364;2023-01-25T10:07:18;95610.84;;;1.92;78.78
33191;BME280;19554;42.652;23.364;2023-01-25T10:10:06;95605.50;;;2.05;78.85
33191;BME280;19554;42.652;23.364;2023-01-25T10:12:36;95611.66;;;1.86;78.00
33191;BME280;19554;42.652;23.364;2023-01-25T10:15:36;95600.16;;;2.19;78.10
33191;BME280;19554;42.652;23.364;2023-01-25T10:21:20;95590.59;;;2.31;77.15
33191;BME280;19554;42.652;23.364;2023-01-25T10:29:41;95582.19;;;2.16;77.57
33191;BME280;19554;42.652;23.364;2023-01-25T10:32:25;95584.72;;;2.29;76.64
33191;BME280;19554;42.652;23.364;2023-01-25T10:34:53;95573.47;;;2.08;75.94
33191;BME280;19554;42.652;23.364;2023-01-25T10:37:23;95571.88;;;2.07;75.54
33191;BME280;19554;42.652;23.364;2023-01-25T10:40:01;95564.09;;;2.26;75.55
33191;BME280;19554;42.652;23.364;2023-01-25T10:42:31;95568.47;;;2.32;75.27
33191;BME280;19554;42.652;23.364;2023-01-25T10:44:57;95562.28;;;2.20;74.52
33191;BME280;19554;42.652;23.364;2023-01-25T10:47:26;95548.03;;;2.34;74.72
33191;BME280;19554;42.652;23.364;2023-01-25T10:49:54;95560.63;;;2.57;74.37
33191;BME280;19554;42.652;23.364;2023-01-25T10:52:21;95546.38;;;2.65;73.49
33191;BME280;19554;42.652;23.364;2023-01-25T10:54:48;95541.31;;;2.63;72.57
33191;BME280;19554;42.652;23.364;2023-01-25T10:57:17;95521.59;;;2.72;72.28
33191;BME280;19554;42.652;23.364;2023-01-25T10:59:53;95533.34;;;2.70;71.53
33191;BME280;19554;42.652;23.364;2023-01-25T11:02:38;95529.72;;;2.71;71.40
33191;BME280;19554;42.652;23.364;2023-01-25T11:07:44;95533.69;;;2.80;71.17
33191;BME280;19554;42.652;23.364;2023-01-25T11:10:33;95524.78;;;2.81;70.28
33191;BME280;19554;42.652;23.364;2023-01-25T11:15:40;95510.13;;;2.85;70.23
33191;BME280;19554;42.652;23.364;2023-01-25T11:18:28;95520.19;;;2.95;70.05
33191;BME280;19554;42.652;23.364;2023-01-25T11:21:17;95513.19;;;2.82;70.20
33191;BME280;19554;42.652;23.364;2023-01-25T11:26:29;95516.13;;;2.74;70.03
33191;BME280;19554;42.652;23.364;2023-01-25T11:31:41;95513.47;;;2.74;71.25
33191;BME280;19554;42.652;23.364;2023-01-25T11:34:15;95512.34;;;2.88;70.52
33191;BME280;19554;42.652;23.364;2023-01-25T11:36:43;95498.44;;;2.99;70.53
33191;BME280;19554;42.652;23.364;2023-01-25T11:45:21;95488.03;;;3.23;68.23
33191;BME280;19554;42.652;23.364;2023-01-25T11:59:12;95475.53;;;2.75;70.30
33191;BME280;19554;42.652;23.364;2023-01-25T12:07:50;95465.19;;;2.30;72.60
33191;BME280;19554;42.652;23.364;2023-01-25T12:19:31;95453.66;;;1.99;74.31
33191;BME280;19554;42.652;23.364;2023-01-25T12:29:49;95443.13;;;2.49;72.58
33191;BME280;19554;42.652;23.364;2023-01-25T12:35:16;95436.00;;;2.75;70.96
33191;BME280;19554;42.652;23.364;2023-01-25T12:37:47;95439.06;;;2.72;71.34
33191;BME280;19554;42.652;23.364;2023-01-25T12:40:17;95432.88;;;2.59;70.93
33191;BME280;19554;42.652;23.364;2023-01-25T12:42:52;95434.16;;;2.57;70.54
33191;BME280;19554;42.652;23.364;2023-01-25T12:45:23;95431.88;;;2.35;71.36
33191;BME280;19554;42.652;23.364;2023-01-25T12:47:56;95432.19;;;2.46;71.68
33191;BME280;19554;42.652;23.364;2023-01-25T12:50:40;95429.06;;;2.37;72.20
33191;BME280;19554;42.652;23.364;2023-01-25T12:53:12;95340.38;;;1.81;72.09
33191;BME280;19554;42.652;23.364;2023-01-25T12:55:42;95421.63;;;2.02;72.96
33191;BME280;19554;42.652;23.364;2023-01-25T13:01:14;95420.97;;;2.32;73.43
33191;BME280;19554;42.652;23.364;2023-01-25T13:04:07;95426.25;;;2.32;72.84
33191;BME280;19554;42.652;23.364;2023-01-25T13:07:05;95421.72;;;2.39;72.43
33191;BME280;19554;42.652;23.364;2023-01-25T13:12:04;95419.09;;;2.39;71.80
33191;BME280;19554;42.652;23.364;2023-01-25T13:14:35;95409.53;;;2.45;71.61
33191;BME280;19554;42.652;23.364;2023-01-25T13:17:29;95406.22;;;2.49;71.56
33191;BME280;19554;42.652;23.364;2023-01-25T13:19:57;95399.66;;;2.58;70.41
33191;BME280;19554;42.652;23.364;2023-01-25T13:25:20;95389.56;;;2.55;70.42
33191;BME280;19554;42.652;23.364;2023-01-25T13:27:46;95387.94;;;2.54;69.93
33191;BME280;19554;42.652;23.364;2023-01-25T13:38:41;95272.94;;;1.61;70.63
33191;BME280;19554;42.652;23.364;2023-01-25T13:40:42;95403.59;;;2.49;70.55
33191;BME280;19554;42.652;23.364;2023-01-25T13:45:37;95367.59;;;2.18;70.77
33191;BME280;19554;42.652;23.364;2023-01-25T13:48:17;95405.06;;;2.20;71.24
33191;BME280;19554;42.652;23.364;2023-01-25T13:50:51;95419.78;;;2.28;71.39
33191;BME280;19554;42.652;23.364;2023-01-25T13:53:19;95429.16;;;2.24;71.50
33191;BME280;19554;42.652;23.364;2023-01-25T13:55:46;95405.41;;;2.05;72.51
33191;BME280;19554;42.652;23.364;2023-01-25T13:58:27;95428.41;;;2.17;71.88
33191;BME280;19554;42.652;23.364;2023-01-25T14:03:49;95411.00;;;2.16;72.11
33191;BME280;19554;42.652;23.364;2023-01-25T14:06:19;95301.50;;;1.26;72.16
33191;BME280;19554;42.652;23.364;2023-01-25T14:08:46;95418.81;;;1.97;72.84
33191;BME280;19554;42.652;23.364;2023-01-25T14:11:24;95417.03;;;1.91;73.32
33191;BME280;19554;42.652;23.364;2023-01-25T14:14:02;95314.66;;;1.19;73.99
33191;BME280;19554;42.652;23.364;2023-01-25T14:16:29;95412.31;;;2.00;73.90
33191;BME280;19554;42.652;23.364;2023-01-25T14:18:57;95399.69;;;2.08;73.12
33191;BME280;19554;42.652;23.364;2023-01-25T14:21:42;95387.06;;;1.92;73.62
33191;BME280;19554;42.652;23.364;2023-01-25T14:24:08;95405.13;;;1.88;72.80
33191;BME280;19554;42.652;23.364;2023-01-25T14:26:37;95390.88;;;1.96;73.26
33191;BME280;19554;42.652;23.364;2023-01-25T14:29:15;95354.44;;;1.93;72.68
33191;BME280;19554;42.652;23.364;2023-01-25T14:31:41;95394.13;;;2.23;72.74
33191;BME280;19554;42.652;23.364;2023-01-25T14:34:15;95406.16;;;2.12;72.89
33191;BME280;19554;42.652;23.364;2023-01-25T14:36:41;95372.50;;;1.64;73.98
33191;BME280;19554;42.652;23.364;2023-01-25T14:39:26;95395.06;;;1.79;74.67
33191;BME280;19554;42.652;23.364;2023-01-25T14:41:51;95389.09;;;1.90;74.18
33191;BME280;19554;42.652;23.364;2023-01-25T14:44:18;95297.91;;;1.21;73.91
33191;BME280;19554;42.652;23.364;2023-01-25T14:46:45;95409.75;;;1.61;74.30
33191;BME280;19554;42.652;23.364;2023-01-25T14:54:14;95386.22;;;1.35;75.42
33191;BME280;19554;42.652;23.364;2023-01-25T14:56:42;95400.22;;;1.22;75.68
33191;BME280;19554;42.652;23.364;2023-01-25T14:59:21;95389.72;;;1.22;76.30
33191;BME280;19554;42.652;23.364;2023-01-25T15:01:49;95397.34;;;1.37;76.37
33191;BME280;19554;42.652;23.364;2023-01-25T15:04:16;95410.28;;;1.32;76.37
33191;BME280;19554;42.652;23.364;2023-01-25T15:06:47;95423.88;;;1.22;77.04
33191;BME280;19554;42.652;23.364;2023-01-25T15:09:38;95401.50;;;1.13;77.78